KGYR/GYR METAR and TAF weather

Enter ICAO airport designator
Station Type Date Time Source
KGYR METAR 2021/09/16 03:47 UTC NOAA

KGYR 160347Z 25004KT 10SM SKC 33/08 A2976 RMK LAST


Station Type Date Time Source
KGYR Decoded METAR 2021/09/16 03:47 UTC NOAA

Goodyear Municipal, AZ, United States (KGYR) 33-25N 112-23W
Sep 15, 2021 - 11:47 PM EDT / 2021.09.16 0347 UTC
Wind: from the WSW (250 degrees) at 5 MPH (4 KT):0
Visibility: 10 mile(s):0
Sky conditions: clear
Temperature: 91 F (33 C)
Dew Point: 46 F (8 C)
Relative Humidity: 21%
Pressure (altimeter): 29.76 in. Hg (1007 hPa)
ob: KGYR 160347Z 25004KT 10SM SKC 33/08 A2976 RMK LAST
cycle: 4

Station Type Date Time Source
KGYR TAF UTC NOAA

Error!

Example: see airport list